Time;durP1;ratioP1;P1;durP2;ratioP2;P2;SDS_P1;SDS_P2;PMS_P1;PMS_P2;Temp;Humidity;BMP_temperature;BMP_pressure;BME280_temperature;BME280_humidity;BME280_pressure;Samples;Min_cycle;Max_cycle;Signal;HPM_P1;HPM_P2
2023/11/07 00:00:46;;;;;;;;;;;;;;;9.66;86.16;97326.44;5074160;28;19921;-58
2023/11/07 00:03:11;;;;;;;;;;;;;;;9.65;86.19;97324.88;5072718;28;19978;-58
2023/11/07 00:05:37;;;;;;;;;;;;;;;9.67;86.07;97334.06;5073631;28;20393;-56
2023/11/07 00:08:02;;;;;;;;;;;;;;;9.65;86.55;97338.09;5073066;28;19931;-58
2023/11/07 00:10:29;;;;;;;;;;;;;;;9.71;86.29;97339.59;5072482;28;19931;-58
2023/11/07 00:12:54;;;;;;;;;;;;;;;9.75;85.98;97345.91;5073866;28;20011;-57
2023/11/07 00:15:20;;;;;;;;;;;;;;;9.74;86.98;97344.34;5073553;28;19986;-59
2023/11/07 00:17:46;;;;;;;;;;;;;;;9.80;86.37;97339.78;5072386;28;19924;-57
2023/11/07 00:20:11;;;;;;;;;;;;;;;9.80;86.88;97345.06;5073403;28;19920;-58
2023/11/07 00:22:37;;;;;;;;;;;;;;;9.75;87.67;97349.34;5073569;28;19971;-58
2023/11/07 00:25:03;;;;;;;;;;;;;;;9.69;87.44;97349.69;5073228;28;19964;-58
2023/11/07 00:27:29;;;;;;;;;;;;;;;9.69;87.45;97353.09;5073532;28;20020;-57
2023/11/07 00:29:54;;;;;;;;;;;;;;;9.72;87.61;97355.19;5055261;28;20394;-60
2023/11/07 00:32:20;;;;;;;;;;;;;;;9.75;86.97;97348.53;5055263;28;19947;-57
2023/11/07 00:34:45;;;;;;;;;;;;;;;9.79;86.82;97352.19;5073005;28;19920;-59
2023/11/07 00:37:11;;;;;;;;;;;;;;;9.75;86.67;97337.97;5055128;28;19969;-58
2023/11/07 00:39:36;;;;;;;;;;;;;;;9.71;87.50;97345.69;5073192;28;19948;-59
2023/11/07 00:42:02;;;;;;;;;;;;;;;9.75;87.29;97359.91;5071763;28;19921;-58
2023/11/07 00:44:27;;;;;;;;;;;;;;;9.78;87.05;97364.66;5073065;28;19928;-61
2023/11/07 00:46:53;;;;;;;;;;;;;;;9.81;87.08;97362.50;5071375;28;19924;-58
2023/11/07 00:49:18;;;;;;;;;;;;;;;9.81;87.23;97355.34;5072701;28;19921;-57
2023/11/07 00:51:44;;;;;;;;;;;;;;;9.79;87.03;97360.13;5071430;28;19924;-58
2023/11/07 00:54:11;;;;;;;;;;;;;;;9.84;87.22;97361.94;5072802;28;19920;-58
2023/11/07 00:56:36;;;;;;;;;;;;;;;9.83;86.62;97368.31;5072734;28;19931;-58
2023/11/07 00:59:02;;;;;;;;;;;;;;;9.81;87.17;97363.28;5071382;28;19920;-58
2023/11/07 01:01:30;;;;;;;;;;;;;;;9.86;87.26;97376.47;5054829;28;19924;-58
2023/11/07 01:03:55;;;;;;;;;;;;;;;9.85;87.17;97372.25;5072442;28;19924;-57
2023/11/07 01:06:21;;;;;;;;;;;;;;;9.86;87.62;97381.78;5072497;28;20013;-57
2023/11/07 01:08:46;;;;;;;;;;;;;;;9.91;86.78;97380.91;5072177;28;20027;-58
2023/11/07 01:11:12;;;;;;;;;;;;;;;9.92;86.62;97375.34;5072402;28;19924;-58
2023/11/07 01:13:38;;;;;;;;;;;;;;;9.95;87.03;97379.28;5072247;28;19927;-58
2023/11/07 01:16:04;;;;;;;;;;;;;;;9.97;86.38;97372.66;5072313;28;19921;-58
2023/11/07 01:18:31;;;;;;;;;;;;;;;9.96;86.51;97373.72;5071015;28;19989;-58
2023/11/07 01:20:57;;;;;;;;;;;;;;;9.97;86.65;97371.84;5071814;28;20362;-59
2023/11/07 01:23:23;;;;;;;;;;;;;;;9.97;86.55;97371.84;5070984;28;19968;-59
2023/11/07 01:25:48;;;;;;;;;;;;;;;9.96;86.46;97371.06;5054445;28;19978;-58
2023/11/07 01:28:15;;;;;;;;;;;;;;;9.94;86.54;97383.00;5072460;28;19924;-57
2023/11/07 01:30:40;;;;;;;;;;;;;;;9.96;86.67;97386.16;5070680;28;19920;-58
2023/11/07 01:33:06;;;;;;;;;;;;;;;9.92;86.75;97380.66;5072370;28;19967;-57
2023/11/07 01:35:31;;;;;;;;;;;;;;;9.93;86.84;97384.06;5072009;28;20384;-58
2023/11/07 01:37:57;;;;;;;;;;;;;;;9.91;87.23;97383.56;5070653;28;19921;-57
2023/11/07 01:40:23;;;;;;;;;;;;;;;9.88;87.30;97390.22;5057390;28;19920;-60
2023/11/07 01:42:48;;;;;;;;;;;;;;;9.91;87.26;97384.38;5052128;28;20301;-58
2023/11/07 01:45:14;;;;;;;;;;;;;;;9.88;87.50;97384.94;5050586;28;19927;-59
2023/11/07 01:47:41;;;;;;;;;;;;;;;9.91;87.17;97386.19;5050551;28;20349;-58
2023/11/07 01:50:12;;;;;;;;;;;;;;;9.85;87.54;97388.13;5050587;28;19921;-57
2023/11/07 01:52:38;;;;;;;;;;;;;;;9.83;87.28;97384.97;5052014;28;20019;-58
2023/11/07 01:55:08;;;;;;;;;;;;;;;9.85;87.27;97389.97;5050435;28;20012;-59
2023/11/07 01:57:36;;;;;;;;;;;;;;;9.88;87.57;97392.88;5033773;28;20346;-58
2023/11/07 02:00:08;;;;;;;;;;;;;;;9.90;87.06;97389.94;5033825;28;19921;-60
2023/11/07 02:02:38;;;;;;;;;;;;;;;9.92;88.03;97395.75;5059514;28;19931;-58
2023/11/07 02:05:04;;;;;;;;;;;;;;;9.85;87.89;97395.28;5070774;28;19920;-59
2023/11/07 02:07:30;;;;;;;;;;;;;;;9.87;88.74;97395.78;5070134;28;19931;-58
2023/11/07 02:09:56;;;;;;;;;;;;;;;9.85;88.33;97396.06;5072135;28;19927;-59
2023/11/07 02:12:22;;;;;;;;;;;;;;;9.83;88.14;97400.06;5072090;28;20356;-59
2023/11/07 02:14:47;;;;;;;;;;;;;;;9.88;87.88;97406.09;5071807;28;20298;-60
2023/11/07 02:17:13;;;;;;;;;;;;;;;9.85;88.10;97401.34;5070463;28;19978;-59
2023/11/07 02:19:38;;;;;;;;;;;;;;;9.85;88.21;97405.84;5071763;28;20031;-59
2023/11/07 02:22:24;;;;;;;;;;;;;;;9.81;88.27;97404.84;5070932;28;19924;-58
2023/11/07 02:24:49;;;;;;;;;;;;;;;9.84;88.43;97407.72;5053820;28;19965;-58
2023/11/07 02:27:16;;;;;;;;;;;;;;;9.83;88.65;97408.00;5071747;28;19931;-59
2023/11/07 02:29:41;;;;;;;;;;;;;;;9.87;88.30;97415.09;5070448;28;19920;-58
2023/11/07 02:32:07;;;;;;;;;;;;;;;9.91;88.48;97416.13;5070754;28;19924;-59
2023/11/07 02:34:32;;;;;;;;;;;;;;;9.95;87.51;97419.00;5074630;28;19920;-58
2023/11/07 02:36:58;;;;;;;;;;;;;;;9.95;88.42;97416.34;5074490;28;20317;-58
2023/11/07 02:39:24;;;;;;;;;;;;;;;9.94;88.17;97420.03;5075890;28;19927;-58
2023/11/07 02:41:50;;;;;;;;;;;;;;;9.91;88.18;97425.91;5074449;28;20404;-58
2023/11/07 02:44:15;;;;;;;;;;;;;;;9.91;88.63;97433.84;5073433;28;19920;-58
2023/11/07 02:46:41;;;;;;;;;;;;;;;9.94;88.35;97427.97;5075595;28;20022;-59
2023/11/07 02:49:06;;;;;;;;;;;;;;;9.90;87.58;97429.63;5075394;28;19920;-59
2023/11/07 02:51:32;;;;;;;;;;;;;;;9.92;88.03;97438.09;5075552;28;19926;-58
2023/11/07 02:53:58;;;;;;;;;;;;;;;9.92;87.88;97427.50;5075353;28;20375;-57
2023/11/07 02:56:27;;;;;;;;;;;;;;;9.89;87.67;97420.13;5075298;28;19924;-58
2023/11/07 02:58:55;;;;;;;;;;;;;;;9.87;87.63;97430.97;5075453;28;19921;-57
2023/11/07 03:01:21;;;;;;;;;;;;;;;9.91;87.71;97426.72;5075002;28;19924;-57
2023/11/07 03:03:48;;;;;;;;;;;;;;;9.88;87.06;97429.09;5075137;28;19920;-58
2023/11/07 03:06:14;;;;;;;;;;;;;;;9.95;88.14;97429.59;5074203;28;19989;-58
2023/11/07 03:08:39;;;;;;;;;;;;;;;9.95;87.32;97426.94;5075023;28;19920;-57
2023/11/07 03:11:05;;;;;;;;;;;;;;;9.94;87.18;97431.44;5074955;28;19943;-58
2023/11/07 03:13:31;;;;;;;;;;;;;;;9.93;87.48;97445.72;5073785;28;19920;-57
2023/11/07 03:15:57;;;;;;;;;;;;;;;9.95;87.33;97440.16;5074978;28;20003;-59
2023/11/07 03:18:22;;;;;;;;;;;;;;;9.96;86.91;97447.03;5056910;28;20070;-57
2023/11/07 03:20:48;;;;;;;;;;;;;;;9.96;86.84;97442.53;5074932;28;19931;-59
2023/11/07 03:23:14;;;;;;;;;;;;;;;9.98;87.63;97439.59;5057020;28;19931;-57
2023/11/07 03:25:39;;;;;;;;;;;;;;;10.02;86.70;97441.41;5074880;28;19920;-58
2023/11/07 03:28:05;;;;;;;;;;;;;;;10.01;86.82;97445.13;5073528;28;19990;-59
2023/11/07 03:30:30;;;;;;;;;;;;;;;10.03;86.64;97439.56;5075035;28;19927;-60
2023/11/07 03:32:56;;;;;;;;;;;;;;;10.05;86.47;97444.56;5074688;28;19924;-59
2023/11/07 03:35:23;;;;;;;;;;;;;;;10.03;87.09;97452.78;5074631;28;20309;-58
2023/11/07 03:37:48;;;;;;;;;;;;;;;10.04;87.07;97453.59;5073428;28;19924;-58
2023/11/07 03:40:14;;;;;;;;;;;;;;;9.98;87.66;97445.69;5074760;28;20412;-58
2023/11/07 03:42:40;;;;;;;;;;;;;;;9.93;88.21;97458.97;5073234;28;20315;-59
2023/11/07 03:45:05;;;;;;;;;;;;;;;9.89;88.27;97457.16;5072956;28;19920;-60
2023/11/07 03:47:31;;;;;;;;;;;;;;;9.85;87.91;97456.91;5073710;28;20038;-58
2023/11/07 03:49:56;;;;;;;;;;;;;;;9.82;87.83;97457.47;5074381;28;19965;-58
2023/11/07 03:52:22;;;;;;;;;;;;;;;9.82;88.36;97459.34;5074488;28;19924;-58
2023/11/07 03:54:47;;;;;;;;;;;;;;;9.83;88.89;97463.59;5074242;28;19929;-57
2023/11/07 03:57:13;;;;;;;;;;;;;;;9.88;87.76;97460.88;5074471;28;19966;-58
2023/11/07 03:59:38;;;;;;;;;;;;;;;9.89;88.54;97462.47;5074114;28;20453;-58
2023/11/07 04:02:05;;;;;;;;;;;;;;;9.87;88.56;97462.72;5074096;28;19920;-59
2023/11/07 04:04:30;;;;;;;;;;;;;;;9.91;89.02;97471.72;5074025;28;19920;-59
2023/11/07 04:06:58;;;;;;;;;;;;;;;9.94;89.13;97473.78;5074219;28;20281;-58
2023/11/07 04:09:23;;;;;;;;;;;;;;;9.92;88.45;97465.34;5073801;28;19924;-58
2023/11/07 04:11:49;;;;;;;;;;;;;;;9.90;88.98;97470.09;5074107;28;19935;-58
2023/11/07 04:14:17;;;;;;;;;;;;;;;9.89;88.13;97471.19;5072451;28;19927;-60
2023/11/07 04:16:44;;;;;;;;;;;;;;;9.90;88.61;97469.31;5073893;28;19924;-60
2023/11/07 04:19:11;;;;;;;;;;;;;;;9.91;87.77;97468.25;5073650;28;19927;-59
2023/11/07 04:21:37;;;;;;;;;;;;;;;9.92;88.16;97475.91;5070758;28;20329;-60
2023/11/07 04:24:04;;;;;;;;;;;;;;;9.97;87.82;97483.00;5069208;28;19920;-57
2023/11/07 04:26:31;;;;;;;;;;;;;;;9.98;87.80;97481.97;5059033;28;19924;-59
2023/11/07 04:28:57;;;;;;;;;;;;;;;9.93;87.95;97479.34;5062689;28;19920;-59
2023/11/07 04:31:23;;;;;;;;;;;;;;;9.94;88.03;97483.56;5062854;28;19924;-59
2023/11/07 04:33:48;;;;;;;;;;;;;;;9.92;87.84;97486.50;5063729;28;20309;-59
2023/11/07 04:36:16;;;;;;;;;;;;;;;9.93;89.19;97490.72;5062233;28;19924;-59
2023/11/07 04:38:43;;;;;;;;;;;;;;;9.97;89.39;97490.94;5063601;28;20431;-58
2023/11/07 04:41:09;;;;;;;;;;;;;;;10.01;88.82;97489.34;5062221;28;19928;-59
2023/11/07 04:43:35;;;;;;;;;;;;;;;10.00;88.10;97495.72;5063875;28;20007;-58
2023/11/07 04:46:01;;;;;;;;;;;;;;;9.99;88.99;97496.75;5062424;28;20412;-59
2023/11/07 04:48:27;;;;;;;;;;;;;;;10.03;88.79;97500.44;5062566;28;19924;-60
2023/11/07 04:50:52;;;;;;;;;;;;;;;9.98;88.93;97495.19;5062347;28;20310;-59
2023/11/07 04:53:18;;;;;;;;;;;;;;;9.96;89.37;97502.59;5061895;28;19920;-58
2023/11/07 04:55:43;;;;;;;;;;;;;;;9.94;88.78;97510.03;5064016;28;19920;-59
2023/11/07 04:58:09;;;;;;;;;;;;;;;9.91;89.56;97519.34;5070957;28;20455;-59
2023/11/07 05:00:34;;;;;;;;;;;;;;;9.90;90.02;97514.31;5060933;28;19921;-59
2023/11/07 05:03:01;;;;;;;;;;;;;;;9.91;90.14;97524.63;5063781;28;19931;-60
2023/11/07 05:05:26;;;;;;;;;;;;;;;9.86;90.09;97521.25;5059243;28;19932;-58
2023/11/07 05:07:52;;;;;;;;;;;;;;;9.88;90.92;97521.72;5061935;28;20436;-59
2023/11/07 05:10:17;;;;;;;;;;;;;;;9.86;91.80;97523.88;5060777;28;19935;-60
2023/11/07 05:12:43;;;;;;;;;;;;;;;9.89;91.95;97528.63;5062390;28;20016;-59
2023/11/07 05:15:09;;;;;;;;;;;;;;;9.91;90.98;97521.19;5068980;28;19925;-60
2023/11/07 05:17:35;;;;;;;;;;;;;;;9.91;90.99;97527.28;5071808;28;19927;-58
2023/11/07 05:20:02;;;;;;;;;;;;;;;9.88;90.52;97532.31;5071194;28;19920;-59
2023/11/07 05:22:29;;;;;;;;;;;;;;;9.89;91.26;97547.16;5066630;28;19928;-57
2023/11/07 05:24:54;;;;;;;;;;;;;;;9.90;91.55;97554.78;5051386;28;19927;-61
2023/11/07 05:27:20;;;;;;;;;;;;;;;9.86;92.68;97550.34;5052213;28;19924;-61
2023/11/07 05:29:46;;;;;;;;;;;;;;;9.84;93.21;97555.13;5050997;28;19966;-58
2023/11/07 05:32:12;;;;;;;;;;;;;;;9.84;94.09;97552.47;5052363;28;20340;-60
2023/11/07 05:34:39;;;;;;;;;;;;;;;9.83;93.67;97551.69;5071601;28;19920;-58
2023/11/07 05:37:05;;;;;;;;;;;;;;;9.88;93.79;97558.78;5072033;28;19973;-58
2023/11/07 05:39:31;;;;;;;;;;;;;;;9.87;92.76;97565.16;5041801;28;19919;-59
2023/11/07 05:41:56;;;;;;;;;;;;;;;9.92;92.95;97565.13;5063266;28;20381;-59
2023/11/07 05:44:22;;;;;;;;;;;;;;;9.90;91.84;97564.59;5065838;28;19916;-61
2023/11/07 05:46:48;;;;;;;;;;;;;;;9.96;91.67;97563.50;5070563;28;20344;-58
2023/11/07 05:49:13;;;;;;;;;;;;;;;9.93;90.13;97575.41;5052596;28;19920;-61
2023/11/07 05:51:39;;;;;;;;;;;;;;;9.93;90.27;97569.34;5060881;28;19928;-58
2023/11/07 05:54:04;;;;;;;;;;;;;;;9.90;89.55;97583.13;5060952;28;19921;-59
2023/11/07 05:56:30;;;;;;;;;;;;;;;9.94;90.17;97586.78;5060484;28;20281;-58
2023/11/07 05:58:55;;;;;;;;;;;;;;;9.97;89.54;97594.16;5051491;28;19921;-57
2023/11/07 06:01:21;;;;;;;;;;;;;;;9.98;89.43;97593.13;5051596;28;19931;-58
2023/11/07 06:03:50;;;;;;;;;;;;;;;9.96;89.19;97592.59;5051084;28;19927;-58
2023/11/07 06:06:15;;;;;;;;;;;;;;;9.98;90.35;97598.41;5051833;28;19931;-59
2023/11/07 06:08:41;;;;;;;;;;;;;;;9.91;89.19;97604.03;5050072;28;20015;-58
2023/11/07 06:11:06;;;;;;;;;;;;;;;9.92;88.49;97596.88;5051522;28;20286;-59
2023/11/07 06:13:32;;;;;;;;;;;;;;;9.98;88.30;97615.09;5051161;28;19955;-59
2023/11/07 06:15:57;;;;;;;;;;;;;;;9.99;86.67;97619.31;5051595;28;19928;-60
2023/11/07 06:18:24;;;;;;;;;;;;;;;10.04;86.84;97615.06;5062139;28;20010;-60
2023/11/07 06:20:49;;;;;;;;;;;;;;;10.03;85.35;97614.28;5071046;28;19924;-59
2023/11/07 06:23:15;;;;;;;;;;;;;;;10.04;85.85;97626.44;5063426;28;20340;-58
2023/11/07 06:25:41;;;;;;;;;;;;;;;10.09;86.35;97623.75;5047208;28;19987;-59
2023/11/07 06:28:08;;;;;;;;;;;;;;;10.10;85.86;97632.47;5033763;28;19924;-59
2023/11/07 06:30:34;;;;;;;;;;;;;;;10.14;85.32;97634.28;5051198;28;20003;-60
2023/11/07 06:33:00;;;;;;;;;;;;;;;10.08;84.65;97631.94;5051576;28;19924;-59
2023/11/07 06:35:26;;;;;;;;;;;;;;;10.09;84.44;97631.69;5033592;28;20382;-56
2023/11/07 06:37:51;;;;;;;;;;;;;;;10.08;83.93;97639.91;5049918;28;19924;-59
2023/11/07 06:40:18;;;;;;;;;;;;;;;10.10;84.17;97640.41;5043472;28;19920;-60
2023/11/07 06:42:45;;;;;;;;;;;;;;;10.20;84.58;97648.28;5056739;28;19924;-60
2023/11/07 06:45:12;;;;;;;;;;;;;;;10.31;84.20;97651.66;5053389;28;19925;-59
2023/11/07 06:47:41;;;;;;;;;;;;;;;10.29;82.86;97649.28;5069795;28;19928;-59
2023/11/07 06:50:09;;;;;;;;;;;;;;;10.26;81.98;97659.63;5071253;28;19920;-60
2023/11/07 06:52:38;;;;;;;;;;;;;;;10.26;81.88;97660.41;5067229;28;19978;-58
2023/11/07 06:55:05;;;;;;;;;;;;;;;10.30;81.57;97656.19;5057855;28;19921;-59
2023/11/07 06:57:31;;;;;;;;;;;;;;;10.28;82.32;97663.59;5061638;28;20378;-59
2023/11/07 06:59:57;;;;;;;;;;;;;;;10.26;82.63;97662.25;5059836;28;19927;-59
2023/11/07 07:02:23;;;;;;;;;;;;;;;10.27;82.33;97653.28;5061034;28;20011;-59
2023/11/07 07:04:49;;;;;;;;;;;;;;;10.33;82.42;97660.13;5044814;28;19974;-60
2023/11/07 07:07:15;;;;;;;;;;;;;;;10.40;81.50;97671.19;5058072;28;19925;-59
2023/11/07 07:09:41;;;;;;;;;;;;;;;10.43;81.73;97668.75;5061066;28;20003;-59
2023/11/07 07:12:06;;;;;;;;;;;;;;;10.48;81.36;97675.88;5059003;28;19928;-59
2023/11/07 07:14:32;;;;;;;;;;;;;;;10.52;82.03;97674.25;5060228;28;20025;-61
2023/11/07 07:17:01;;;;;;;;;;;;;;;10.51;81.85;97672.69;5058181;28;19925;-58
2023/11/07 07:19:26;;;;;;;;;;;;;;;10.54;81.69;97674.78;5062247;28;19916;-59
2023/11/07 07:21:53;;;;;;;;;;;;;;;10.61;81.91;97680.53;5063534;28;19924;-58
2023/11/07 07:24:21;;;;;;;;;;;;;;;10.64;81.09;97679.19;5053440;28;19962;-60
2023/11/07 07:26:47;;;;;;;;;;;;;;;10.80;80.92;97683.28;5063857;28;19924;-60
2023/11/07 07:29:13;;;;;;;;;;;;;;;10.88;81.21;97687.97;5049053;28;19944;-60
2023/11/07 07:31:42;;;;;;;;;;;;;;;10.98;80.96;97691.59;5063156;28;20243;-59
2023/11/07 07:34:08;;;;;;;;;;;;;;;11.05;80.53;97692.81;5063646;28;20405;-56
2023/11/07 07:36:43;;;;;;;;;;;;;;;11.09;80.82;97696.50;5063911;28;19979;-58
2023/11/07 07:39:27;;;;;;;;;;;;;;;11.15;79.24;97705.19;5063948;28;19927;-58
2023/11/07 07:41:56;;;;;;;;;;;;;;;11.12;78.87;97706.56;5065096;28;19931;-61
2023/11/07 07:44:24;;;;;;;;;;;;;;;11.06;79.83;97707.69;5062312;28;19965;-60
2023/11/07 07:46:51;;;;;;;;;;;;;;;11.08;80.07;97699.44;5063444;28;19924;-59
2023/11/07 07:49:17;;;;;;;;;;;;;;;11.11;79.85;97707.59;5064999;28;20412;-60
2023/11/07 07:51:45;;;;;;;;;;;;;;;11.03;79.39;97708.25;5063171;28;19932;-58
2023/11/07 07:54:11;;;;;;;;;;;;;;;11.05;79.55;97706.06;5057105;28;19936;-59
2023/11/07 07:56:36;;;;;;;;;;;;;;;11.10;79.16;97711.34;5054233;28;20008;-58
2023/11/07 07:59:05;;;;;;;;;;;;;;;11.14;79.05;97711.56;5069789;28;19920;-59
2023/11/07 08:01:30;;;;;;;;;;;;;;;11.18;79.39;97715.25;5073595;28;19936;-61
2023/11/07 08:03:56;;;;;;;;;;;;;;;11.23;78.99;97714.38;5058582;28;19926;-59
2023/11/07 08:06:22;;;;;;;;;;;;;;;11.09;77.31;97708.97;5054286;28;19925;-58
2023/11/07 08:08:48;;;;;;;;;;;;;;;10.98;78.17;97710.16;5052743;28;20378;-56
2023/11/07 08:11:15;;;;;;;;;;;;;;;10.99;78.24;97712.50;5052848;28;19931;-60
2023/11/07 08:13:41;;;;;;;;;;;;;;;10.99;78.41;97717.03;5052582;28;19927;-60
2023/11/07 08:16:06;;;;;;;;;;;;;;;10.96;78.70;97718.38;5052923;28;19936;-56
2023/11/07 08:18:32;;;;;;;;;;;;;;;10.91;79.13;97716.56;5051096;28;20515;-60
2023/11/07 08:20:58;;;;;;;;;;;;;;;10.88;80.00;97726.94;5052297;28;19920;-59
2023/11/07 08:23:24;;;;;;;;;;;;;;;10.87;80.22;97731.44;5044896;28;19966;-58
2023/11/07 08:25:50;;;;;;;;;;;;;;;10.88;80.48;97740.19;5072429;28;20022;-61
2023/11/07 08:28:17;;;;;;;;;;;;;;;10.87;80.64;97731.44;5063152;28;20011;-60
2023/11/07 08:30:43;;;;;;;;;;;;;;;10.85;80.23;97740.75;5050858;28;19920;-59
2023/11/07 08:33:09;;;;;;;;;;;;;;;10.86;81.24;97745.00;5060879;28;19960;-58
2023/11/07 08:35:36;;;;;;;;;;;;;;;10.74;81.09;97745.34;5072313;28;19920;-61
2023/11/07 08:38:01;;;;;;;;;;;;;;;10.72;82.53;97746.69;5064668;28;20406;-59
2023/11/07 08:40:27;;;;;;;;;;;;;;;10.67;81.27;97739.56;5065922;28;19920;-59
2023/11/07 08:42:52;;;;;;;;;;;;;;;10.64;82.24;97742.78;5065466;28;20520;-58
2023/11/07 08:45:18;;;;;;;;;;;;;;;10.56;81.87;97740.72;5051079;28;19963;-60
2023/11/07 08:47:49;;;;;;;;;;;;;;;10.60;82.38;97744.41;5054283;28;20401;-58
2023/11/07 08:50:14;;;;;;;;;;;;;;;10.64;83.68;97745.44;5069270;28;19927;-60
2023/11/07 08:52:40;;;;;;;;;;;;;;;10.72;82.56;97746.69;5065786;28;19952;-60
2023/11/07 08:55:06;;;;;;;;;;;;;;;10.75;82.21;97751.44;5048561;28;19975;-59
2023/11/07 08:57:32;;;;;;;;;;;;;;;10.80;82.14;97757.50;5051810;28;19924;-59
2023/11/07 08:59:58;;;;;;;;;;;;;;;10.92;82.21;97741.22;5071918;28;20356;-58
2023/11/07 09:02:25;;;;;;;;;;;;;;;11.09;81.21;97751.41;5069422;28;19924;-57
2023/11/07 09:04:50;;;;;;;;;;;;;;;11.11;80.42;97754.53;5050614;28;19927;-59
2023/11/07 09:07:19;;;;;;;;;;;;;;;11.13;80.13;97755.06;5050384;28;19924;-58
2023/11/07 09:09:46;;;;;;;;;;;;;;;11.20;81.08;97752.06;5011758;28;1175378;-58
2023/11/07 09:12:12;;;;;;;;;;;;;;;11.21;80.27;97753.69;5051648;28;19974;-58
2023/11/07 09:14:37;;;;;;;;;;;;;;;11.18;80.23;97762.97;5071234;28;19924;-61
2023/11/07 09:17:05;;;;;;;;;;;;;;;11.15;79.85;97763.53;5072617;28;20024;-58
2023/11/07 09:19:31;;;;;;;;;;;;;;;11.20;80.23;97768.00;5070632;28;19924;-61
2023/11/07 09:21:56;;;;;;;;;;;;;;;11.29;79.84;97768.94;5071059;28;19950;-58
2023/11/07 09:24:22;;;;;;;;;;;;;;;11.37;79.68;97773.66;5053426;28;19966;-58
2023/11/07 09:26:49;;;;;;;;;;;;;;;11.43;79.47;97771.72;5052531;28;19920;-58
2023/11/07 09:29:16;;;;;;;;;;;;;;;11.44;79.85;97775.97;5051358;28;20439;-59
2023/11/07 09:31:42;;;;;;;;;;;;;;;11.44;78.94;97775.97;5050037;28;19974;-58
2023/11/07 09:34:08;;;;;;;;;;;;;;;11.41;78.97;97779.97;5051902;28;20306;-58
2023/11/07 09:36:34;;;;;;;;;;;;;;;11.43;78.75;97780.47;5052734;28;19921;-58
2023/11/07 09:39:02;;;;;;;;;;;;;;;11.42;79.46;97781.56;5055581;28;20343;-59
2023/11/07 09:41:28;;;;;;;;;;;;;;;11.40;79.25;97777.59;5071246;28;20018;-54
2023/11/07 09:43:54;;;;;;;;;;;;;;;11.41;79.36;97779.97;5070541;28;19924;-58
2023/11/07 09:46:20;;;;;;;;;;;;;;;11.43;79.74;97782.34;5072243;28;20003;-57
2023/11/07 09:48:46;;;;;;;;;;;;;;;11.51;79.25;97784.38;5056687;28;19932;-58
2023/11/07 09:51:11;;;;;;;;;;;;;;;11.53;78.45;97788.34;5050639;28;19921;-58
2023/11/07 09:53:37;;;;;;;;;;;;;;;11.49;79.00;97792.63;5045844;28;19930;-60
2023/11/07 09:56:03;;;;;;;;;;;;;;;11.43;77.94;97791.09;5069389;28;19946;-60
2023/11/07 09:58:29;;;;;;;;;;;;;;;11.43;79.39;97793.75;5059328;28;19963;-58
2023/11/07 10:00:58;;;;;;;;;;;;;;;11.42;78.94;97789.53;5050486;28;19921;-58
2023/11/07 10:03:24;;;;;;;;;;;;;;;11.40;78.06;97799.63;5051424;28;19925;-58
2023/11/07 10:05:50;;;;;;;;;;;;;;;11.43;78.77;97799.06;5051461;28;19978;-60
2023/11/07 10:08:16;;;;;;;;;;;;;;;11.45;78.10;97796.13;5051037;28;20015;-59
2023/11/07 10:10:42;;;;;;;;;;;;;;;11.44;77.34;97805.97;5033626;28;20020;-61
2023/11/07 10:13:08;;;;;;;;;;;;;;;11.46;77.80;97814.41;5050125;28;19967;-56
2023/11/07 10:15:33;;;;;;;;;;;;;;;11.42;77.38;97808.09;5051150;28;19925;-59
2023/11/07 10:18:00;;;;;;;;;;;;;;;11.48;77.78;97811.50;5051476;28;20212;-59
2023/11/07 10:20:26;;;;;;;;;;;;;;;11.43;77.13;97820.28;5051675;28;19932;-60
2023/11/07 10:22:52;;;;;;;;;;;;;;;11.34;76.64;97827.28;5051423;28;19921;-59
2023/11/07 10:25:40;;;;;;;;;;;;;;;11.34;77.32;97824.63;5050451;28;19932;-59
2023/11/07 10:28:08;;;;;;;;;;;;;;;11.37;76.75;97832.00;5020330;28;19921;-58
2023/11/07 10:30:43;;;;;;;;;;;;;;;11.30;77.57;97831.56;5051621;28;20310;-59
2023/11/07 10:33:09;;;;;;;;;;;;;;;11.28;77.80;97831.03;5051475;28;20019;-58
2023/11/07 10:35:54;;;;;;;;;;;;;;;11.34;77.75;97833.34;5060400;28;20031;-59
2023/11/07 10:38:20;;;;;;;;;;;;;;;11.40;77.30;97820.84;5071091;28;20424;-60
2023/11/07 10:40:46;;;;;;;;;;;;;;;11.43;77.51;97822.16;5069090;28;19920;-61
2023/11/07 10:43:11;;;;;;;;;;;;;;;11.43;77.73;97838.06;5071126;28;19931;-60
2023/11/07 10:45:37;;;;;;;;;;;;;;;11.44;77.25;97843.09;5070193;28;19924;-61
2023/11/07 10:48:03;;;;;;;;;;;;;;;11.47;76.98;97845.19;5070001;28;19920;-60
2023/11/07 10:50:29;;;;;;;;;;;;;;;11.42;77.47;97855.84;5071128;28;20056;-59
2023/11/07 10:52:55;;;;;;;;;;;;;;;11.48;77.45;97848.63;5069929;28;19942;-60
2023/11/07 10:55:20;;;;;;;;;;;;;;;11.54;77.38;97861.56;5065686;28;19928;-60
2023/11/07 10:57:47;;;;;;;;;;;;;;;11.56;76.67;97845.38;5055396;28;20281;-58
2023/11/07 11:00:19;;;;;;;;;;;;;;;11.47;76.42;97853.16;5053944;28;20291;-60
2023/11/07 11:02:47;;;;;;;;;;;;;;;11.50;76.53;97870.34;5054016;28;19928;-61
2023/11/07 11:05:15;;;;;;;;;;;;;;;11.47;77.08;97866.41;5040711;28;20372;-60
2023/11/07 11:07:43;;;;;;;;;;;;;;;11.42;76.77;97866.47;5053703;28;19920;-56
2023/11/07 11:10:08;;;;;;;;;;;;;;;11.45;77.23;97871.22;5067084;28;19925;-60
2023/11/07 11:12:35;;;;;;;;;;;;;;;11.46;77.02;97872.78;5053323;28;20409;-60
2023/11/07 11:15:00;;;;;;;;;;;;;;;11.41;76.45;97872.03;5059918;28;19928;-59
2023/11/07 11:17:29;;;;;;;;;;;;;;;11.35;77.48;97873.94;5072830;28;19927;-57
2023/11/07 11:20:02;;;;;;;;;;;;;;;11.33;76.72;97868.94;5067879;28;19924;-58
2023/11/07 11:22:37;;;;;;;;;;;;;;;11.33;76.63;97879.53;5053606;28;20333;-57
2023/11/07 11:25:21;;;;;;;;;;;;;;;11.34;77.77;97877.66;5053074;28;19925;-57
2023/11/07 11:27:48;;;;;;;;;;;;;;;11.37;77.14;97871.81;5054999;28;20023;-60
2023/11/07 11:30:14;;;;;;;;;;;;;;;11.32;77.57;97888.56;5053120;28;19931;-58
2023/11/07 11:32:44;;;;;;;;;;;;;;;11.34;77.09;97882.97;5054691;28;19924;-59
2023/11/07 11:35:15;;;;;;;;;;;;;;;11.34;77.40;97878.47;5054268;28;19924;-58
2023/11/07 11:38:00;;;;;;;;;;;;;;;11.40;77.02;97886.38;5053203;28;19966;-58
2023/11/07 11:41:06;;;;;;;;;;;;;;;11.47;76.12;97889.47;5059221;28;19968;-60
2023/11/07 11:43:36;;;;;;;;;;;;;;;11.46;76.41;97886.03;5031978;28;19924;-59
2023/11/07 11:46:11;;;;;;;;;;;;;;;11.48;76.00;97886.56;5029036;28;19986;-59
2023/11/07 11:48:52;;;;;;;;;;;;;;;11.39;75.97;97890.91;5052973;28;19932;-59
2023/11/07 11:51:36;;;;;;;;;;;;;;;11.34;76.01;97882.97;5054070;28;19927;-59
2023/11/07 11:54:03;;;;;;;;;;;;;;;11.39;76.01;97895.41;5053930;28;19944;-62
2023/11/07 11:56:29;;;;;;;;;;;;;;;11.35;75.07;97895.97;5060445;28;19990;-62
2023/11/07 11:59:07;;;;;;;;;;;;;;;11.25;75.51;97900.56;5062235;28;20453;-60
2023/11/07 12:01:55;;;;;;;;;;;;;;;11.20;75.30;97901.38;5062578;28;19927;-59
2023/11/07 12:04:40;;;;;;;;;;;;;;;11.18;75.94;97911.50;5062491;28;20040;-59
2023/11/07 12:07:08;;;;;;;;;;;;;;;11.24;75.91;97915.69;5063979;28;20271;-61
2023/11/07 12:09:37;;;;;;;;;;;;;;;11.24;76.01;97921.00;5062327;28;19963;-63
2023/11/07 12:12:03;;;;;;;;;;;;;;;11.19;75.59;97925.53;5061940;28;19920;-59
2023/11/07 12:14:29;;;;;;;;;;;;;;;11.14;76.47;97939.63;5062209;28;20444;-61
2023/11/07 12:16:55;;;;;;;;;;;;;;;11.06;75.86;97927.75;5069009;28;19920;-60
2023/11/07 12:19:20;;;;;;;;;;;;;;;10.94;76.24;97943.19;5072659;28;19950;-60
2023/11/07 12:21:46;;;;;;;;;;;;;;;10.88;76.90;97944.28;5053525;28;20270;-59
2023/11/07 12:24:11;;;;;;;;;;;;;;;10.85;76.86;97952.78;5052509;28;19924;-58
2023/11/07 12:26:38;;;;;;;;;;;;;;;10.86;77.92;97941.94;5067547;28;19916;-59
2023/11/07 12:29:06;;;;;;;;;;;;;;;10.89;77.62;97951.19;5060551;28;19928;-60
2023/11/07 12:31:38;;;;;;;;;;;;;;;10.90;77.27;97955.44;5061602;28;19966;-61
2023/11/07 12:34:04;;;;;;;;;;;;;;;10.90;77.00;97958.88;5062460;28;20282;-59
2023/11/07 12:36:29;;;;;;;;;;;;;;;10.84;77.85;97957.31;5061894;28;19927;-58
2023/11/07 12:38:54;;;;;;;;;;;;;;;10.82;77.99;97963.94;5045726;28;19928;-59
2023/11/07 12:41:20;;;;;;;;;;;;;;;10.76;77.36;97965.81;5063515;28;20373;-62
2023/11/07 12:43:46;;;;;;;;;;;;;;;10.68;77.52;97966.41;5062470;28;19924;-58
2023/11/07 12:46:13;;;;;;;;;;;;;;;10.69;78.47;97963.47;5063499;28;19920;-58
2023/11/07 12:48:38;;;;;;;;;;;;;;;10.66;77.66;97966.69;5063435;28;19925;-60